• Join FlightAware (Why Join?)
  • Login
  • US Flag 
01:11AM EDT


 

Airport Tracker/Info


-or-


 

Live Flight TrackerFlight Track Log ✈ UAL1053 ✈ 18-Apr-2013 ✈ KEWR - KCLE

Flight Track Log - Related Links

Times and Time Zones

All times are in EDT time to prevent confusion due to time zone crossing. See the UAL1053 flight status page for this flight to view local times or setup timezone preferences in your user account.

Time Position Orientation Groundspeed Altitude Reporting Facility
EDT Latitude Longitude Course Direction KTS MPH feet Rate Location/Type
07:52PM 40.6787 -74.1775 90° East 163 188 300  Level FlightAware ADS-B
07:53PM 40.6746 -74.1801 206° Southwest 160 184 600 2,700 Climbing FlightAware ADS-B
07:53PM 40.6711 -74.1816 198° South 156 180 800 2,160 Climbing FlightAware ADS-B
07:53PM 40.6572 -74.1834 186° South 157 181 1,400 1,980 Climbing FlightAware ADS-B
07:53PM 40.6529 -74.1849 195° South 183 211 1,600 2,400 Climbing FlightAware ADS-B
07:53PM 40.6444 -74.1954 223° Southwest 191 220 2,200 3,600 Climbing FlightAware ADS-B
07:54PM 40.6324 -74.2258 243° Southwest 203 234 4,100 4,020 Climbing FlightAware ADS-B
07:54PM 40.6312 -74.2351 260° West 211 243 4,500 3,420 Climbing FlightAware ADS-B
07:54PM 40.6312 -74.2344 90° East 216 249 4,500 1,980 Level FlightAware ADS-B
07:54PM 40.6373 -74.2574 289° West 256 295 5,100 2,160 Climbing FlightAware ADS-B
07:54PM 40.6383 -74.2600 297° West 242 278 5,200 2,820 Climbing FlightAware ADS-B
07:54PM 40.6469 -74.2856 294° West 268 308 6,000 3,420 Climbing FlightAware ADS-B
07:55PM 40.6553 -74.3092 295° West 268 308 7,100 3,900 Climbing FlightAware ADS-B
07:55PM 40.6634 -74.3332 294° West 271 312 8,100 3,840 Climbing FlightAware ADS-B
07:55PM 40.6713 -74.3548 296° West 273 314 9,100 3,540 Climbing FlightAware ADS-B
07:56PM 40.6875 -74.4049 293° West 284 327 10,900 3,360 Climbing FlightAware ADS-B
07:56PM 40.7031 -74.4535 293° West 295 339 12,600 3,300 Climbing FlightAware ADS-B
07:57PM 40.7134 -74.4854 293° West 299 344 13,600 3,300 Climbing FlightAware ADS-B
07:57PM 40.7197 -74.4974 305° West 310 357 14,100 3,180 Climbing FlightAware ADS-B
07:57PM 40.7245 -74.5050 310° West 315 362 14,300 3,240 Climbing FlightAware ADS-B
07:57PM 40.7312 -74.5129 318° Northwest 317 365 14,700 2,640 Climbing FlightAware ADS-B
07:57PM 40.7668 -74.5482 323° Northwest 328 377 15,900 1,740 Climbing FlightAware ADS-B
07:58PM 40.8062 -74.5904 321° Northwest 355 409 16,500 720 Climbing FlightAware ADS-B
07:58PM 40.8458 -74.6307 322° Northwest 363 418 16,700 240 Climbing FlightAware ADS-B
07:59PM 40.8625 -74.6488 321° Northwest 360 414 16,700 300 Level FlightAware ADS-B
07:59PM 40.8675 -74.6542 321° Northwest 357 411 16,800  Climbing FlightAware ADS-B
07:59PM 40.8743 -74.6686 302° West 351 404 16,700 -480 Descending FlightAware ADS-B
07:59PM 40.8781 -74.6788 296° West 345 397 16,700  Level FlightAware ADS-B
07:59PM 40.8799 -74.6889 283° West 344 396 16,700  Level FlightAware ADS-B
07:59PM 40.8810 -74.7016 277° West 340 391 16,700  Level FlightAware ADS-B
07:59PM 40.8822 -74.7314 273° West 340 391 16,700  Level FlightAware ADS-B
08:00PM 40.8867 -74.7932 276° West 341 392 16,700  Level FlightAware ADS-B
08:00PM 40.8925 -74.8598 277° West 343 395 16,700 660 Level FlightAware ADS-B
08:01PM 40.8979 -74.9226 277° West 350 403 17,400 2,100 Climbing FlightAware ADS-B
08:01PM 40.9036 -74.9876 277° West 357 411 18,900 2,100 Climbing FlightAware ADS-B
08:02PM 40.9093 -75.0565 276° West 365 420 19,600 1,140 Climbing FlightAware ADS-B
08:02PM 40.9139 -75.1149 276° West 367 422 20,000 600 Climbing FlightAware ADS-B
08:03PM 40.9143 -75.1379 271° West 365 420 20,000  Level FlightAware ADS-B
08:03PM 40.9134 -75.1641 267° West 362 417 20,000  Level FlightAware ADS-B
08:03PM 40.9121 -75.1779 263° West 361 415 20,000  Level FlightAware ADS-B
08:03PM 40.9087 -75.2010 259° West 359 413 20,000  Level FlightAware ADS-B
08:04PM 40.8951 -75.2678 255° West 357 411 20,000  Level FlightAware ADS-B
08:04PM 40.8826 -75.3293 255° West 356 410 20,000  Level FlightAware ADS-B
08:05PM 40.8696 -75.3931 255° West 370 426 20,000  Level FlightAware ADS-B
08:05PM 40.8535 -75.4628 253° West 393 452 20,000 60 Level FlightAware ADS-B
08:06PM 40.8373 -75.5314 253° West 394 453 20,100 600 Climbing FlightAware ADS-B
08:06PM 40.8332 -75.5488 253° West 396 456 20,400 1,860 Climbing FlightAware ADS-B
08:06PM 40.8295 -75.5685 256° West 399 459 20,600 1,980 Climbing FlightAware ADS-B
08:06PM 40.8268 -75.5916 261° West 403 464 21,000 2,400 Climbing FlightAware ADS-B
08:06PM 40.8256 -75.6158 266° West 405 466 21,400 2,100 Climbing FlightAware ADS-B
08:07PM 40.8288 -75.6956 273° West 417 480 22,400 2,100 Climbing FlightAware ADS-B
08:07PM 40.8324 -75.7722 274° West 423 487 23,500 2,040 Climbing FlightAware ADS-B
08:08PM 40.8362 -75.8473 274° West 429 494 24,500 1,620 Climbing FlightAware ADS-B
08:08PM 40.8398 -75.9293 273° West 435 501 25,200 1,500 Climbing FlightAware ADS-B
08:09PM 40.8439 -76.0138 274° West 442 509 26,100 1,860 Climbing FlightAware ADS-B
08:09PM 40.8476 -76.0971 273° West 440 506 27,200 1,860 Climbing FlightAware ADS-B
08:10PM 40.8512 -76.1775 273° West 445 512 28,000 1,440 Climbing FlightAware ADS-B
08:10PM 40.8548 -76.2632 273° West 451 519 28,700 1,560 Climbing FlightAware ADS-B
08:11PM 40.8583 -76.3445 273° West 449 517 29,600 1,260 Climbing FlightAware ADS-B
08:11PM 40.8617 -76.4299 273° West 445 512 30,000 360 Climbing FlightAware ADS-B
08:12PM 40.8656 -76.5193 273° West 446 513 30,000  Level FlightAware ADS-B
08:12PM 40.8697 -76.6144 273° West 446 513 30,000  Level FlightAware ADS-B
08:13PM 40.8771 -76.7103 276° West 447 514 30,000  Level FlightAware ADS-B
08:14PM 40.8989 -76.5697 78° East 450 518 30,000  Level FlightAware ADS-B
08:15PM 40.8650 -76.4920 120° Southeast 30,000  Level FlightAware
08:18PM 42.0000 -79.0930 301° West 451 519 30,000  Level FlightAware
08:19PM 42.0000 -78.2230 90° East 451 519 30,000  Level FlightAware
08:19PM 42.0000 -76.9380 90° East 453 521 30,000  Level FlightAware
08:20PM 42.0160 -77.0510 281° West 453 521 30,000  Level FlightAware
08:21PM 42.0300 -77.1450 281° West 453 521 30,000  Level FlightAware
08:21PM 42.0430 -77.2390 281° West 453 521 30,000  Level FlightAware
08:22PM 42.0570 -77.3340 281° West 453 521 30,000  Level FlightAware
08:23PM 42.0000 -74.2830 90° East 448 516 30,000  Level FlightAware
08:24PM 42.0070 -74.3680 276° West 448 516 30,000  Level FlightAware
08:24PM 42.0160 -74.4860 276° West 448 516 30,000  Level FlightAware
08:25PM 42.0230 -74.5800 276° West 448 516 30,000  Level FlightAware
08:26PM 42.0310 -74.6740 277° West 448 516 30,000  Level FlightAware
08:26PM 42.0380 -74.7690 276° West 448 516 30,000  Level FlightAware
08:27PM 41.1700 -78.9900 256° West 440 506 30,000  Level FlightAware
08:28PM 41.1820 -79.1140 277° West 442 509 30,000 -180 Level FlightAware
08:29PM 41.1920 -79.2180 277° West 444 511 29,800 -720 Descending FlightAware
08:29PM 41.2020 -79.3230 277° West 441 507 29,100 -1,440 Descending FlightAware
08:30PM 41.2140 -79.4530 277° West 462 532 27,800 -1,920 Descending FlightAware
08:31PM 41.2250 -79.5730 277° West 474 545 26,300 -2,340 Descending FlightAware
08:31PM 41.2360 -79.6930 277° West 446 513 24,500 -2,340 Descending FlightAware
08:32PM 41.2450 -79.7950 277° West 417 480 23,200 -2,280 Descending FlightAware
08:33PM 41.2540 -79.9030 276° West 400 460 21,300 -2,400 Descending FlightAware
08:33PM 41.2630 -80.0020 277° West 383 441 19,800 -1,680 Descending FlightAware
08:35PM 41.2760 -80.1500 277° West 368 423 18,300 -840 Descending FlightAware
08:35PM 41.2820 -80.2260 276° West 368 423 18,300 -2,220 Level FlightAware
08:36PM 41.2980 -80.3290 282° West 368 423 15,400 -3,120 Descending FlightAware
08:37PM 41.3150 -80.4280 283° West 336 387 13,900 -1,020 Descending FlightAware
08:37PM 41.3250 -80.5090 279° West 336 387 13,900  Level FlightAware
08:38PM 41.3350 -80.5780 281° West 336 387 13,900 -1,560 Level FlightAware
08:39PM 41.3580 -80.7430 281° West 325 374 11,100 -1,800 Descending FlightAware
08:40PM 41.3730 -80.8480 281° West 325 374 10,200 -600 Descending FlightAware
08:41PM 41.3830 -80.9240 280° West 319 367 10,200  Level FlightAware
08:42PM 41.3950 -81.0140 280° West 318 366 10,200  Level FlightAware
08:42PM 41.4050 -81.0870 280° West 289 333 10,200  Level FlightAware
08:43PM 41.4150 -81.1650 280° West 276 318 10,200  Level FlightAware
08:44PM 41.4240 -81.2300 280° West 260 299 10,200 -480 Level FlightAware
08:44PM 41.4320 -81.2920 280° West 260 299 9,600 -1,380 Descending FlightAware
08:45PM 41.4380 -81.3410 279° West 269 310 8,600 -2,040 Descending FlightAware
08:45PM 41.4420 -81.3660 282° West 268 308 8,100 -1,800 Descending FlightAware
08:46PM 41.4470 -81.4050 280° West 266 306 7,400 -1,320 Descending FlightAware
08:46PM 41.4540 -81.4600 280° West 246 283 6,800 -1,020 Descending FlightAware
08:47PM 41.4590 -81.4970 280° West 228 262 6,400 -1,440 Descending FlightAware
08:47PM 41.4640 -81.5390 279° West 221 254 5,500 -1,740 Descending FlightAware
08:48PM 41.4690 -81.5790 279° West 215 247 4,700 -1,440 Descending FlightAware
08:48PM 41.4730 -81.6100 280° West 199 229 4,200 -600 Descending FlightAware
08:48PM 41.4790 -81.6460 283° West 197 227 4,200  Level FlightAware
08:49PM 41.4830 -81.6740 281° West 188 216 4,200 -600 Level FlightAware
08:49PM 41.4830 -81.7060 270° West 162 186 3,700 -1,020 Descending FlightAware
08:50PM 41.4780 -81.7350 257° West 155 178 3,200 -1,020 Descending FlightAware
08:50PM 41.4720 -81.7580 251° West 156 180 2,800 -1,020 Descending FlightAware
08:51PM 41.4590 -81.7800 232° Southwest 156 180 2,300 -1,020 Descending FlightAware
08:51PM 41.4470 -81.7960 225° Southwest 154 177 1,900 -960 Descending FlightAware
08:52PM 41.4330 -81.8140 224° Southwest 148 170 1,500 -840 Descending FlightAware
08:52PM 41.4180 -81.8370 229° Southwest 153 176 1,100 -420 Descending FlightAware
08:53PM 41.4080 -81.8530 230° Southwest 153 176 1,100  Level FlightAware